createdAt,value
2022-10-17T00:02:14.420Z,18.00
2022-10-17T00:04:41.155Z,18.00
2022-10-17T00:07:07.921Z,18.00
2022-10-17T00:09:34.614Z,18.00
2022-10-17T00:12:02.692Z,18.10
2022-10-17T00:14:29.458Z,18.00
2022-10-17T00:16:56.166Z,18.00
2022-10-17T00:19:22.932Z,18.00
2022-10-17T00:21:49.931Z,18.00
2022-10-17T00:24:16.701Z,18.00
2022-10-17T00:26:43.469Z,17.90
2022-10-17T00:29:10.255Z,17.80
2022-10-17T00:31:37.219Z,17.90
2022-10-17T00:34:03.962Z,17.80
2022-10-17T00:36:30.844Z,17.80
2022-10-17T00:38:59.172Z,17.90
2022-10-17T00:41:31.491Z,17.70
2022-10-17T00:44:02.381Z,17.90
2022-10-17T00:46:35.311Z,17.90
2022-10-17T00:49:06.813Z,17.70
2022-10-17T00:51:42.760Z,17.70
2022-10-17T00:54:11.444Z,17.70
2022-10-17T00:56:40.375Z,17.70
2022-10-17T00:59:09.248Z,17.90
2022-10-17T01:01:36.307Z,17.80
2022-10-17T01:04:03.272Z,17.70
2022-10-17T01:06:29.982Z,17.70
2022-10-17T01:08:56.983Z,17.70
2022-10-17T01:11:32.918Z,17.70
2022-10-17T01:14:42.510Z,17.60
2022-10-17T01:17:18.608Z,17.50
2022-10-17T01:20:06.648Z,17.50
2022-10-17T01:22:36.905Z,17.50
2022-10-17T01:25:40.982Z,17.50
2022-10-17T01:28:27.318Z,17.50
2022-10-17T01:31:05.816Z,17.50
2022-10-17T01:33:44.059Z,17.40
2022-10-17T01:36:21.978Z,17.40
2022-10-17T01:39:08.897Z,17.40
2022-10-17T01:42:19.810Z,17.50
2022-10-17T01:45:01.881Z,17.40
2022-10-17T01:47:31.527Z,17.40
2022-10-17T01:50:04.432Z,17.30
2022-10-17T01:52:40.195Z,17.30
2022-10-17T01:55:12.156Z,17.40
2022-10-17T01:57:46.336Z,17.30
2022-10-17T02:00:18.375Z,17.30
2022-10-17T02:02:48.289Z,17.30
2022-10-17T02:05:18.801Z,17.20
2022-10-17T02:07:45.489Z,17.30
2022-10-17T02:10:25.721Z,17.30
2022-10-17T02:13:01.055Z,17.20
2022-10-17T02:15:51.691Z,17.20
2022-10-17T02:18:27.430Z,17.20
2022-10-17T02:21:09.072Z,17.20
2022-10-17T02:23:46.245Z,17.20
2022-10-17T02:26:31.663Z,17.30
2022-10-17T02:29:12.973Z,17.20
2022-10-17T02:31:52.032Z,17.30
2022-10-17T02:34:25.984Z,17.30
2022-10-17T02:36:58.224Z,17.30
2022-10-17T02:39:27.304Z,17.40
2022-10-17T02:41:57.505Z,17.30
2022-10-17T02:44:26.287Z,17.30
2022-10-17T02:46:59.433Z,17.30
2022-10-17T02:49:35.780Z,17.30
2022-10-17T02:52:12.771Z,17.20
2022-10-17T02:55:12.384Z,17.20
2022-10-17T02:57:47.410Z,17.30
2022-10-17T03:00:16.526Z,17.20
2022-10-17T03:02:46.491Z,17.10
2022-10-17T03:05:16.844Z,17.10
2022-10-17T03:07:43.551Z,17.10
2022-10-17T03:10:10.621Z,17.10
2022-10-17T03:12:37.710Z,17.10
2022-10-17T03:15:05.296Z,16.90
2022-10-17T03:17:32.382Z,17.00
2022-10-17T03:19:59.304Z,17.00
2022-10-17T03:22:26.061Z,17.00
2022-10-17T03:24:52.828Z,17.00
2022-10-17T03:27:19.540Z,16.90
2022-10-17T03:29:46.330Z,16.90
2022-10-17T03:32:13.014Z,16.90
2022-10-17T03:34:39.646Z,17.00
2022-10-17T03:37:06.529Z,0.00
2022-10-17T03:39:33.496Z,16.90
2022-10-17T03:42:00.282Z,17.00
2022-10-17T03:44:27.076Z,17.00
2022-10-17T03:46:53.794Z,16.90
2022-10-17T03:49:20.501Z,16.90
2022-10-17T03:51:47.135Z,16.90
2022-10-17T03:54:13.869Z,17.00
2022-10-17T03:56:40.614Z,16.90
2022-10-17T03:59:07.439Z,16.90
2022-10-17T04:01:34.250Z,16.90
2022-10-17T04:04:01.083Z,16.90
2022-10-17T04:06:27.874Z,16.90
2022-10-17T04:08:54.562Z,17.00
2022-10-17T04:11:21.800Z,17.10
2022-10-17T04:13:53.524Z,17.00
2022-10-17T04:16:20.323Z,17.00
2022-10-17T04:18:47.219Z,17.00
2022-10-17T04:23:41.484Z,17.10
2022-10-17T04:26:08.298Z,17.10
2022-10-17T04:28:36.095Z,17.00
2022-10-17T04:31:09.896Z,16.90
2022-10-17T04:33:37.180Z,17.00
2022-10-17T04:36:10.175Z,17.00
2022-10-17T04:38:37.110Z,17.00
2022-10-17T04:41:06.588Z,16.90
2022-10-17T04:43:36.104Z,16.90
2022-10-17T04:46:05.052Z,17.00
2022-10-17T04:48:32.382Z,16.90
2022-10-17T04:51:01.472Z,16.90
2022-10-17T04:53:28.750Z,16.90
2022-10-17T04:55:55.466Z,16.90
2022-10-17T04:58:22.582Z,16.90
2022-10-17T05:00:49.470Z,16.80
2022-10-17T05:03:16.381Z,16.80
2022-10-17T05:05:43.319Z,16.90
2022-10-17T05:08:11.275Z,16.80
2022-10-17T05:10:46.379Z,16.80
2022-10-17T05:13:13.384Z,16.80
2022-10-17T05:15:40.086Z,16.70
2022-10-17T05:18:07.083Z,16.80
2022-10-17T05:20:34.247Z,16.90
2022-10-17T05:23:01.461Z,16.90
2022-10-17T05:25:28.197Z,16.90
2022-10-17T05:27:54.948Z,16.80
2022-10-17T05:30:21.940Z,16.80
2022-10-17T05:32:51.535Z,16.80
2022-10-17T05:35:18.238Z,16.80
2022-10-17T05:37:44.948Z,16.80
2022-10-17T05:40:11.867Z,16.80
2022-10-17T05:45:07.206Z,16.80
2022-10-17T05:47:33.894Z,16.80
2022-10-17T05:50:00.576Z,16.90
2022-10-17T05:52:27.537Z,16.90
2022-10-17T05:54:54.561Z,16.90
2022-10-17T05:57:21.317Z,16.90
2022-10-17T05:59:48.071Z,0.00
2022-10-17T06:02:14.894Z,17.00
2022-10-17T06:04:45.615Z,16.90
2022-10-17T06:07:13.205Z,17.00
2022-10-17T06:09:40.195Z,17.00
2022-10-17T06:12:07.836Z,17.00
2022-10-17T06:14:35.144Z,17.00
2022-10-17T06:17:01.870Z,16.90
2022-10-17T06:19:28.723Z,16.90
2022-10-17T06:21:55.404Z,17.00
2022-10-17T06:24:22.049Z,17.10
2022-10-17T06:26:50.123Z,17.10
2022-10-17T06:29:17.530Z,17.00
2022-10-17T06:31:44.332Z,17.00
2022-10-17T06:34:11.074Z,17.00
2022-10-17T06:36:37.787Z,16.90
2022-10-17T06:39:04.605Z,17.00
2022-10-17T06:41:31.328Z,17.00
2022-10-17T06:43:58.074Z,16.90
2022-10-17T06:46:26.808Z,16.90
2022-10-17T06:48:53.543Z,17.00
2022-10-17T06:51:20.295Z,17.00
2022-10-17T06:53:47.232Z,17.00
2022-10-17T06:56:13.955Z,17.10
2022-10-17T06:58:41.251Z,17.10
2022-10-17T07:01:12.992Z,17.20
2022-10-17T07:03:41.056Z,17.20
2022-10-17T07:06:11.219Z,17.30
2022-10-17T07:08:38.389Z,17.30
2022-10-17T07:11:16.841Z,17.30
2022-10-17T07:13:44.067Z,17.40
2022-10-17T07:16:12.356Z,17.40
2022-10-17T07:18:39.159Z,17.50
2022-10-17T07:21:07.758Z,17.40
2022-10-17T07:23:36.948Z,17.50
2022-10-17T07:26:07.560Z,17.60
2022-10-17T07:28:36.363Z,17.50
2022-10-17T07:31:08.401Z,17.50
2022-10-17T07:33:37.460Z,17.50
2022-10-17T07:36:05.622Z,17.60
2022-10-17T07:38:32.986Z,17.60
2022-10-17T07:41:01.985Z,17.60
2022-10-17T07:43:30.207Z,17.70
2022-10-17T07:45:57.257Z,17.70
2022-10-17T07:48:25.012Z,17.80
2022-10-17T07:50:51.898Z,17.90
2022-10-17T07:53:19.225Z,17.80
2022-10-17T07:55:46.482Z,17.90
2022-10-17T07:58:14.755Z,18.00
2022-10-17T08:00:41.607Z,18.00
2022-10-17T08:03:10.812Z,18.10
2022-10-17T08:05:37.536Z,18.10
2022-10-17T08:08:04.378Z,18.20
2022-10-17T08:10:31.145Z,18.20
2022-10-17T08:12:58.885Z,18.30
2022-10-17T08:15:29.433Z,18.30
2022-10-17T08:17:59.493Z,18.40
2022-10-17T08:20:26.825Z,18.50
2022-10-17T08:22:55.035Z,18.40
2022-10-17T08:25:22.676Z,18.50
2022-10-17T08:27:49.665Z,18.40
2022-10-17T08:30:17.780Z,18.60
2022-10-17T08:32:44.745Z,18.60
2022-10-17T08:35:11.658Z,18.60
2022-10-17T08:37:38.351Z,18.70
2022-10-17T08:40:05.790Z,18.70
2022-10-17T08:43:17.624Z,18.80
2022-10-17T08:45:56.404Z,18.80
2022-10-17T08:48:28.587Z,18.80
2022-10-17T08:51:06.501Z,18.80
2022-10-17T08:53:53.878Z,18.90
2022-10-17T08:56:50.043Z,18.90
2022-10-17T08:59:17.412Z,19.00
2022-10-17T09:02:12.339Z,19.10
2022-10-17T09:04:51.028Z,19.10
2022-10-17T09:07:44.057Z,19.10
2022-10-17T09:10:11.600Z,19.20
2022-10-17T09:13:08.009Z,19.20
2022-10-17T09:16:12.485Z,19.30
2022-10-17T09:19:04.477Z,19.30
2022-10-17T09:21:54.685Z,19.40
2022-10-17T09:24:28.831Z,19.50
2022-10-17T09:26:56.452Z,19.50
2022-10-17T09:29:25.338Z,19.50
2022-10-17T09:34:27.557Z,19.50
2022-10-17T09:36:54.862Z,19.60
2022-10-17T09:39:29.193Z,19.50
2022-10-17T09:41:58.931Z,19.60
2022-10-17T09:44:33.231Z,19.60
2022-10-17T09:47:17.548Z,19.70
2022-10-17T09:49:46.493Z,19.70
2022-10-17T09:52:16.076Z,19.80
2022-10-17T09:54:55.985Z,19.80
2022-10-17T09:57:23.185Z,19.80
2022-10-17T10:00:02.929Z,19.90
2022-10-17T10:02:31.667Z,20.00
2022-10-17T10:05:16.503Z,19.90
2022-10-17T10:07:48.924Z,19.90
2022-10-17T10:10:28.171Z,19.90
2022-10-17T10:13:20.232Z,19.90
2022-10-17T10:15:49.542Z,20.00
2022-10-17T10:18:25.340Z,20.10
2022-10-17T10:21:16.350Z,20.20
2022-10-17T10:24:04.295Z,20.20
2022-10-17T10:26:46.861Z,20.30
2022-10-17T10:29:34.215Z,20.40
2022-10-17T10:32:15.883Z,20.50
2022-10-17T10:35:06.052Z,20.40
2022-10-17T10:37:44.623Z,20.50
2022-10-17T10:40:19.044Z,20.40
2022-10-17T10:43:06.249Z,20.50
2022-10-17T10:45:54.356Z,20.50
2022-10-17T10:48:46.963Z,20.60
2022-10-17T10:51:17.915Z,20.60
2022-10-17T10:53:47.486Z,20.70
2022-10-17T10:56:28.249Z,20.80
2022-10-17T10:59:04.234Z,20.80
2022-10-17T11:01:48.477Z,20.80
2022-10-17T11:04:42.245Z,20.90
2022-10-17T11:07:16.042Z,20.90
2022-10-17T11:09:58.499Z,20.90
2022-10-17T11:12:31.534Z,21.00
2022-10-17T11:15:19.692Z,21.00
2022-10-17T11:17:56.907Z,21.10
2022-10-17T11:20:59.035Z,21.10
2022-10-17T11:23:31.568Z,21.10
2022-10-17T11:26:02.770Z,21.10
2022-10-17T11:28:30.374Z,21.20
2022-10-17T11:31:04.517Z,21.30
2022-10-17T11:34:01.027Z,21.30
2022-10-17T11:36:32.454Z,21.40
2022-10-17T11:39:08.852Z,21.40
2022-10-17T11:41:38.023Z,21.40
2022-10-17T11:44:40.294Z,21.50
2022-10-17T11:47:40.812Z,21.50
2022-10-17T11:53:34.557Z,21.70
2022-10-17T11:56:02.160Z,21.70
2022-10-17T11:58:39.399Z,21.80
2022-10-17T12:01:27.402Z,21.80
2022-10-17T12:04:18.152Z,21.90
2022-10-17T12:07:04.791Z,21.80
2022-10-17T12:09:55.349Z,21.90
2022-10-17T12:12:30.742Z,21.90
2022-10-17T12:15:13.759Z,21.90
2022-10-17T12:17:46.038Z,21.90
2022-10-17T12:20:24.655Z,21.90
2022-10-17T12:22:53.101Z,22.00
2022-10-17T12:25:33.508Z,22.00
2022-10-17T12:28:18.118Z,22.10
2022-10-17T12:31:17.510Z,22.10
2022-10-17T12:33:49.785Z,22.20
2022-10-17T12:36:37.321Z,22.20
2022-10-17T12:39:04.076Z,22.40
2022-10-17T12:41:39.554Z,22.40
2022-10-17T12:44:21.433Z,22.40
2022-10-17T12:46:49.719Z,22.40
2022-10-17T12:49:48.808Z,22.50
2022-10-17T12:52:31.217Z,22.50
2022-10-17T12:55:13.077Z,22.60
2022-10-17T12:57:43.526Z,22.70
2022-10-17T13:01:05.410Z,22.60
2022-10-17T13:03:44.397Z,22.70
2022-10-17T13:06:23.562Z,22.70
2022-10-17T13:09:08.829Z,22.80
2022-10-17T13:11:36.230Z,22.80
2022-10-17T13:14:12.566Z,22.90
2022-10-17T13:16:51.970Z,22.90
2022-10-17T13:19:23.241Z,22.90
2022-10-17T13:22:06.307Z,23.00
2022-10-17T13:24:37.201Z,23.00
2022-10-17T13:27:05.294Z,23.00
2022-10-17T13:29:32.997Z,23.00
2022-10-17T13:32:04.821Z,23.00
2022-10-17T13:34:33.371Z,23.10
2022-10-17T13:37:08.403Z,23.10
2022-10-17T13:39:54.766Z,23.00
2022-10-17T13:42:30.077Z,23.10
2022-10-17T13:44:58.423Z,23.10
2022-10-17T13:47:30.566Z,23.10
2022-10-17T13:49:58.654Z,23.20
2022-10-17T13:52:29.469Z,23.20
2022-10-17T13:55:17.425Z,23.20
2022-10-17T13:57:44.557Z,23.30
2022-10-17T14:00:19.665Z,23.20
2022-10-17T14:02:46.770Z,23.30
2022-10-17T14:05:18.142Z,23.30
2022-10-17T14:08:11.431Z,23.40
2022-10-17T14:10:41.270Z,23.40
2022-10-17T14:13:19.707Z,23.30
2022-10-17T14:15:46.915Z,23.30
2022-10-17T14:18:29.921Z,23.40
2022-10-17T14:21:34.388Z,23.30
2022-10-17T14:23:49.349Z,23.40
2022-10-17T14:26:24.079Z,23.30
2022-10-17T14:29:06.460Z,23.20
2022-10-17T14:31:35.854Z,23.20
2022-10-17T14:34:04.744Z,23.10
2022-10-17T14:36:44.405Z,23.20
2022-10-17T14:39:20.833Z,23.20
2022-10-17T14:41:48.525Z,23.20
2022-10-17T14:44:21.649Z,23.10
2022-10-17T14:46:52.846Z,23.20
2022-10-17T14:49:38.742Z,23.10
2022-10-17T14:52:18.755Z,23.10
2022-10-17T14:54:48.613Z,23.10
2022-10-17T14:57:28.849Z,23.00
2022-10-17T14:59:56.914Z,22.90
2022-10-17T15:02:30.641Z,23.00
2022-10-17T15:04:57.814Z,22.90
2022-10-17T15:07:24.868Z,22.80
2022-10-17T15:09:53.376Z,22.80
2022-10-17T15:12:22.902Z,22.80
2022-10-17T15:14:50.644Z,22.70
2022-10-17T15:17:21.086Z,22.70
2022-10-17T15:19:48.859Z,22.70
2022-10-17T15:22:16.210Z,22.70
2022-10-17T15:24:43.305Z,22.70
2022-10-17T15:27:20.465Z,22.70
2022-10-17T15:29:47.890Z,22.60
2022-10-17T15:32:14.643Z,22.60
2022-10-17T15:34:41.888Z,22.60
2022-10-17T15:37:21.910Z,22.60
2022-10-17T15:39:53.526Z,22.60
2022-10-17T15:42:28.191Z,22.60
2022-10-17T15:44:55.564Z,22.60
2022-10-17T15:47:33.207Z,22.60
2022-10-17T15:50:01.300Z,22.50
2022-10-17T15:52:28.230Z,22.50
2022-10-17T15:54:57.291Z,22.50
2022-10-17T15:57:29.482Z,22.40
2022-10-17T15:59:58.771Z,22.40
2022-10-17T16:02:26.120Z,22.40
2022-10-17T16:04:53.153Z,22.40
2022-10-17T16:07:20.985Z,22.30
2022-10-17T16:09:48.075Z,22.20
2022-10-17T16:14:49.828Z,22.20
2022-10-17T16:17:17.663Z,22.20
2022-10-17T16:19:47.272Z,22.00
2022-10-17T16:22:19.923Z,22.00
2022-10-17T16:24:46.661Z,22.10
2022-10-17T16:27:13.409Z,22.10
2022-10-17T16:29:40.108Z,22.00
2022-10-17T16:32:06.928Z,22.00
2022-10-17T16:34:33.651Z,21.90
2022-10-17T16:37:00.448Z,22.00
2022-10-17T16:41:57.741Z,21.80
2022-10-17T16:44:25.452Z,21.80
2022-10-17T16:46:52.262Z,21.80
2022-10-17T16:49:19.005Z,21.70
2022-10-17T16:51:45.758Z,21.60
2022-10-17T16:54:12.553Z,0.00
2022-10-17T16:56:39.275Z,21.40
2022-10-17T16:59:06.032Z,21.40
2022-10-17T17:01:32.837Z,21.30
2022-10-17T17:03:59.656Z,21.30
2022-10-17T17:06:28.762Z,21.30
2022-10-17T17:08:59.231Z,21.20
2022-10-17T17:11:27.868Z,21.10
2022-10-17T17:13:58.958Z,21.10
2022-10-17T17:16:26.792Z,21.10
2022-10-17T17:18:59.054Z,21.10
2022-10-17T17:21:27.737Z,21.10
2022-10-17T17:23:59.197Z,20.90
2022-10-17T17:26:28.216Z,20.90
2022-10-17T17:28:57.238Z,21.00
2022-10-17T17:31:26.893Z,21.00
2022-10-17T17:36:26.877Z,21.00
2022-10-17T17:38:59.373Z,21.00
2022-10-17T17:41:26.801Z,20.90
2022-10-17T17:43:54.347Z,20.90
2022-10-17T17:46:22.713Z,20.80
2022-10-17T17:48:50.471Z,20.90
2022-10-17T17:51:19.776Z,20.90
2022-10-17T17:53:47.135Z,20.80
2022-10-17T17:56:20.039Z,20.70
2022-10-17T17:58:53.675Z,20.80
2022-10-17T18:01:22.483Z,20.70
2022-10-17T18:03:52.211Z,20.70
2022-10-17T18:06:20.335Z,20.60
2022-10-17T18:08:49.926Z,20.50
2022-10-17T18:11:19.635Z,20.40
2022-10-17T18:13:52.862Z,20.30
2022-10-17T18:16:19.586Z,20.20
2022-10-17T18:18:46.289Z,20.10
2022-10-17T18:21:14.142Z,20.00
2022-10-17T18:23:42.422Z,19.90
2022-10-17T18:26:10.200Z,20.10
2022-10-17T18:28:39.160Z,20.00
2022-10-17T18:31:07.895Z,20.00
2022-10-17T18:33:34.724Z,20.00
2022-10-17T18:36:07.252Z,20.00
2022-10-17T18:38:34.198Z,20.00
2022-10-17T18:41:12.181Z,20.00
2022-10-17T18:43:40.733Z,20.00
2022-10-17T18:46:13.899Z,20.00
2022-10-17T18:48:44.500Z,19.80
2022-10-17T18:51:12.481Z,19.90
2022-10-17T18:53:44.011Z,19.90
2022-10-17T18:56:11.748Z,19.80
2022-10-17T18:58:39.597Z,19.80
2022-10-17T19:01:09.772Z,19.70
2022-10-17T19:03:37.187Z,19.70
2022-10-17T19:06:07.423Z,19.70
2022-10-17T19:08:35.156Z,19.70
2022-10-17T19:11:10.052Z,19.70
2022-10-17T19:13:37.153Z,19.50
2022-10-17T19:16:15.685Z,19.60
2022-10-17T19:18:42.960Z,19.60
2022-10-17T19:21:11.394Z,19.50
2022-10-17T19:23:38.934Z,19.40
2022-10-17T19:26:10.654Z,19.40
2022-10-17T19:28:41.514Z,19.40
2022-10-17T19:31:08.816Z,19.40
2022-10-17T19:33:36.575Z,19.30
2022-10-17T19:36:09.784Z,19.30
2022-10-17T19:38:36.936Z,19.30
2022-10-17T19:41:12.201Z,19.20
2022-10-17T19:43:40.893Z,19.10
2022-10-17T19:46:13.761Z,19.00
2022-10-17T19:48:40.567Z,19.00
2022-10-17T19:51:09.041Z,18.90
2022-10-17T19:53:35.768Z,19.00
2022-10-17T19:56:03.255Z,19.00
2022-10-17T19:58:30.214Z,19.00
2022-10-17T20:01:01.022Z,19.00
2022-10-17T20:03:28.888Z,18.90
2022-10-17T20:05:55.830Z,18.90
2022-10-17T20:08:22.965Z,18.90
2022-10-17T20:10:49.724Z,18.90
2022-10-17T20:13:16.497Z,18.90
2022-10-17T20:15:43.256Z,18.90
2022-10-17T20:18:10.227Z,18.90
2022-10-17T20:20:37.718Z,18.80
2022-10-17T20:23:04.887Z,18.70
2022-10-17T20:25:33.345Z,18.60
2022-10-17T20:28:00.131Z,18.60
2022-10-17T20:30:26.913Z,18.60
2022-10-17T20:32:55.615Z,18.70
2022-10-17T20:35:22.659Z,18.70
2022-10-17T20:37:49.609Z,18.70
2022-10-17T20:40:34.150Z,18.80
2022-10-17T20:43:01.846Z,18.80
2022-10-17T20:45:43.666Z,18.80
2022-10-17T20:48:16.054Z,18.80
2022-10-17T20:50:43.911Z,18.80
2022-10-17T20:53:35.611Z,18.90
2022-10-17T20:56:17.182Z,18.90
2022-10-17T20:58:43.944Z,18.80
2022-10-17T21:01:11.092Z,18.80
2022-10-17T21:03:42.336Z,18.90
2022-10-17T21:06:12.960Z,18.80
2022-10-17T21:08:40.057Z,18.70
2022-10-17T21:11:12.317Z,18.70
2022-10-17T21:13:39.550Z,18.70
2022-10-17T21:16:15.132Z,18.70
2022-10-17T21:18:42.524Z,18.60
2022-10-17T21:21:12.382Z,18.50
2022-10-17T21:23:40.344Z,18.60
2022-10-17T21:26:09.312Z,18.60
2022-10-17T21:28:37.506Z,18.50
2022-10-17T21:31:13.190Z,18.50
2022-10-17T21:33:41.123Z,18.40
2022-10-17T21:36:08.966Z,18.40
2022-10-17T21:38:39.573Z,18.40
2022-10-17T21:41:07.657Z,18.30
2022-10-17T21:43:35.352Z,18.30
2022-10-17T21:46:06.907Z,18.20
2022-10-17T21:48:34.498Z,18.30
2022-10-17T21:51:03.644Z,18.30
2022-10-17T21:53:30.957Z,18.20
2022-10-17T21:56:05.524Z,18.20
2022-10-17T21:58:32.788Z,18.20
2022-10-17T22:01:14.633Z,18.10
2022-10-17T22:03:45.881Z,18.20
2022-10-17T22:09:11.551Z,18.20
2022-10-17T22:11:38.316Z,18.20
2022-10-17T22:14:14.745Z,18.20
2022-10-17T22:16:41.889Z,18.30
2022-10-17T22:19:09.209Z,18.30
2022-10-17T22:21:36.647Z,18.30
2022-10-17T22:24:06.417Z,18.30
2022-10-17T22:26:35.129Z,18.40
2022-10-17T22:29:02.757Z,18.30
2022-10-17T22:31:29.519Z,18.40
2022-10-17T22:33:56.483Z,18.30
2022-10-17T22:36:23.597Z,18.30
2022-10-17T22:38:50.676Z,18.20
2022-10-17T22:41:17.586Z,18.30
2022-10-17T22:43:44.405Z,18.30
2022-10-17T22:46:13.480Z,18.30
2022-10-17T22:48:40.451Z,18.30
2022-10-17T22:51:07.362Z,18.30
2022-10-17T22:53:35.171Z,18.20
2022-10-17T22:56:07.496Z,18.20
2022-10-17T22:58:35.333Z,18.20
2022-10-17T23:01:03.150Z,18.20
2022-10-17T23:03:31.323Z,18.10
2022-10-17T23:05:58.505Z,18.10
2022-10-17T23:08:27.050Z,18.10
2022-10-17T23:10:54.045Z,18.00
2022-10-17T23:13:21.932Z,18.00
2022-10-17T23:15:53.839Z,17.80
2022-10-17T23:18:21.589Z,17.80
2022-10-17T23:20:48.666Z,17.70
2022-10-17T23:23:15.668Z,17.60
2022-10-17T23:25:42.826Z,17.80
2022-10-17T23:28:10.015Z,17.80
2022-10-17T23:30:37.726Z,17.70
2022-10-17T23:33:05.124Z,17.60
2022-10-17T23:35:32.125Z,17.50
2022-10-17T23:37:59.438Z,17.50
2022-10-17T23:40:26.571Z,17.40
2022-10-17T23:42:53.282Z,17.40
2022-10-17T23:45:20.154Z,17.50
2022-10-17T23:47:46.921Z,17.40
2022-10-17T23:50:13.658Z,17.50
2022-10-17T23:52:40.335Z,17.60
2022-10-17T23:55:08.045Z,17.60
2022-10-17T23:57:34.941Z,17.70
